Terminal Aerodrome Forecast
Issued by NWS

Home | Current Version | Previous Version | Text Only | Print | Product List | Glossary On
Versions: 1 2 3 4 5 6 7 8 9 10 11 12 13 14 15 16 17 18 19 20 21 22 23 24
000
FTUS46 KMFR 230520
TAFOTH
TAF
KOTH 230520Z 2306/2406 34006KT P6SM OVC028
     FM230800 VRB04KT 5SM -DZ BKN007 OVC015
     FM231600 VRB03KT P6SM BKN015 OVC025
     FM231800 34010G18KT P6SM SCT015 OVC030
     FM232100 36015G20KT P6SM OVC050=

USA.gov is the U.S. government's official web portal to all federal, state and local government web resources and services.